ROA053 SVRS-SVMI
Flight info
| Callsign | ROA053 |
|---|---|
| Flight time | 0h 36m |
| Altitude | 8000 |
| Route | MIDUR PULPO1 |
| Aircraft | C208/L-SDFGR/C |
Departure
| Time | 2026-04-19 20:01 |
|---|---|
| Airport | Los Roques Airport (SVRS) |
Arrival
| Time | 2026-04-19 20:38 |
|---|---|
| Airport | Maiquetía Simón Bolívar International Airport (SVMI) |
| Time | Latitude | Longitude | Altitude | Speed | Heading |
|---|---|---|---|---|---|
| 2026-04-19 19:44 | 11.94502 | -66.67373 | 15 ft | 0 kts | 155° |
| 2026-04-19 19:52 | 11.94497 | -66.67370 | 15 ft | 2 kts | 155° |
| 2026-04-19 19:52 | 11.94496 | -66.67370 | 15 ft | 0 kts | 155° |
| 2026-04-19 19:53 | 11.94493 | -66.67368 | 15 ft | 2 kts | 155° |
| 2026-04-19 19:54 | 11.94492 | -66.67368 | 15 ft | 0 kts | 156° |
| 2026-04-19 19:55 | 11.94491 | -66.67368 | 16 ft | 1 kts | 156° |
| 2026-04-19 19:55 | 11.94478 | -66.67368 | 16 ft | 5 kts | 201° |
| 2026-04-19 19:55 | 11.94457 | -66.67374 | 16 ft | 0 kts | 175° |
| 2026-04-19 19:59 | 11.94435 | -66.67366 | 16 ft | 3 kts | 141° |
| 2026-04-19 19:59 | 11.94438 | -66.67351 | 16 ft | 0 kts | 64° |
| 2026-04-19 20:00 | 11.94519 | -66.67187 | 19 ft | 50 kts | 64° |
| 2026-04-19 20:00 | 11.94730 | -66.66758 | 62 ft | 76 kts | 62° |
| 2026-04-19 20:01 | 11.94968 | -66.66275 | 221 ft | 77 kts | 69° |
| 2026-04-19 20:01 | 11.95173 | -66.65775 | 389 ft | 78 kts | 71° |
| 2026-04-19 20:01 | 11.95375 | -66.65264 | 540 ft | 78 kts | 70° |
| 2026-04-19 20:01 | 11.95588 | -66.64766 | 701 ft | 77 kts | 69° |
| 2026-04-19 20:02 | 11.95781 | -66.64264 | 871 ft | 75 kts | 71° |
| 2026-04-19 20:02 | 11.95926 | -66.63755 | 982 ft | 81 kts | 91° |
| 2026-04-19 20:02 | 11.95699 | -66.63229 | 1152 ft | 89 kts | 133° |
| 2026-04-19 20:02 | 11.95062 | -66.62946 | 1237 ft | 115 kts | 160° |
| 2026-04-19 20:03 | 11.94280 | -66.62716 | 1487 ft | 119 kts | 161° |
| 2026-04-19 20:03 | 11.93447 | -66.62574 | 1732 ft | 125 kts | 173° |
| 2026-04-19 20:03 | 11.92575 | -66.62647 | 1999 ft | 126 kts | 179° |
| 2026-04-19 20:03 | 11.91712 | -66.62542 | 2152 ft | 131 kts | 147° |
| 2026-04-19 20:04 | 11.91052 | -66.61908 | 2314 ft | 133 kts | 131° |
| 2026-04-19 20:04 | 11.90409 | -66.61213 | 2471 ft | 136 kts | 128° |
| 2026-04-19 20:04 | 11.89800 | -66.60457 | 2617 ft | 139 kts | 127° |
| 2026-04-19 20:04 | 11.89179 | -66.59682 | 2757 ft | 143 kts | 127° |
| 2026-04-19 20:05 | 11.88534 | -66.58905 | 2888 ft | 145 kts | 135° |
| 2026-04-19 20:05 | 11.87560 | -66.58613 | 3025 ft | 157 kts | 186° |
| 2026-04-19 20:05 | 11.86648 | -66.59216 | 3169 ft | 164 kts | 226° |
| 2026-04-19 20:05 | 11.85884 | -66.59909 | 3282 ft | 162 kts | 210° |
| 2026-04-19 20:06 | 11.84877 | -66.60523 | 3417 ft | 162 kts | 207° |
| 2026-04-19 20:06 | 11.83906 | -66.61104 | 3543 ft | 162 kts | 207° |
| 2026-04-19 20:06 | 11.82932 | -66.61693 | 3671 ft | 163 kts | 207° |
| 2026-04-19 20:06 | 11.81958 | -66.62282 | 3798 ft | 163 kts | 207° |
| 2026-04-19 20:07 | 11.80972 | -66.62862 | 3923 ft | 164 kts | 205° |
| 2026-04-19 20:07 | 11.79993 | -66.63426 | 4046 ft | 164 kts | 207° |
| 2026-04-19 20:07 | 11.79015 | -66.64016 | 4172 ft | 163 kts | 207° |
| 2026-04-19 20:07 | 11.78044 | -66.64605 | 4299 ft | 162 kts | 207° |
| 2026-04-19 20:08 | 11.77075 | -66.65189 | 4423 ft | 162 kts | 207° |
| 2026-04-19 20:08 | 11.76103 | -66.65774 | 4544 ft | 162 kts | 207° |
| 2026-04-19 20:08 | 11.75127 | -66.66360 | 4674 ft | 163 kts | 207° |
| 2026-04-19 20:08 | 11.74151 | -66.66949 | 4800 ft | 163 kts | 207° |
| 2026-04-19 20:09 | 11.73174 | -66.67536 | 4924 ft | 163 kts | 207° |
| 2026-04-19 20:09 | 11.72198 | -66.68123 | 5044 ft | 163 kts | 207° |
| 2026-04-19 20:09 | 11.71223 | -66.68710 | 5179 ft | 163 kts | 208° |
| 2026-04-19 20:09 | 11.70251 | -66.69298 | 5299 ft | 162 kts | 207° |
| 2026-04-19 20:10 | 11.69284 | -66.69884 | 5414 ft | 162 kts | 208° |
| 2026-04-19 20:10 | 11.68311 | -66.70469 | 5543 ft | 163 kts | 207° |
| 2026-04-19 20:10 | 11.67337 | -66.71055 | 5670 ft | 162 kts | 208° |
| 2026-04-19 20:10 | 11.66366 | -66.71638 | 5797 ft | 162 kts | 208° |
| 2026-04-19 20:11 | 11.65395 | -66.72221 | 5921 ft | 162 kts | 208° |
| 2026-04-19 20:11 | 11.64423 | -66.72807 | 6041 ft | 162 kts | 208° |
| 2026-04-19 20:11 | 11.63449 | -66.73393 | 6164 ft | 163 kts | 208° |
| 2026-04-19 20:11 | 11.62474 | -66.73980 | 6288 ft | 163 kts | 208° |
| 2026-04-19 20:12 | 11.61499 | -66.74564 | 6411 ft | 162 kts | 208° |
| 2026-04-19 20:12 | 11.60526 | -66.75150 | 6535 ft | 163 kts | 208° |
| 2026-04-19 20:12 | 11.59551 | -66.75737 | 6664 ft | 163 kts | 208° |
| 2026-04-19 20:12 | 11.58577 | -66.76322 | 6782 ft | 162 kts | 208° |
| 2026-04-19 20:13 | 11.57617 | -66.76899 | 6914 ft | 163 kts | 208° |
| 2026-04-19 20:13 | 11.56641 | -66.77486 | 7033 ft | 162 kts | 208° |
| 2026-04-19 20:13 | 11.55670 | -66.78070 | 7163 ft | 162 kts | 208° |
| 2026-04-19 20:13 | 11.54699 | -66.78652 | 7295 ft | 161 kts | 208° |
| 2026-04-19 20:14 | 11.53730 | -66.79235 | 7413 ft | 162 kts | 208° |
| 2026-04-19 20:14 | 11.52759 | -66.79818 | 7534 ft | 162 kts | 209° |
| 2026-04-19 20:14 | 11.51784 | -66.80404 | 7664 ft | 162 kts | 209° |
| 2026-04-19 20:14 | 11.50812 | -66.80989 | 7783 ft | 163 kts | 209° |
| 2026-04-19 20:15 | 11.50166 | -66.81377 | 7873 ft | 163 kts | 209° |
| 2026-04-19 20:15 | 11.48860 | -66.82160 | 8003 ft | 165 kts | 209° |
| 2026-04-19 20:15 | 11.47851 | -66.82767 | 8006 ft | 171 kts | 209° |
| 2026-04-19 20:15 | 11.46815 | -66.83392 | 8012 ft | 175 kts | 209° |
| 2026-04-19 20:16 | 11.45761 | -66.84026 | 8019 ft | 177 kts | 209° |
| 2026-04-19 20:16 | 11.44697 | -66.84666 | 8020 ft | 178 kts | 209° |
| 2026-04-19 20:16 | 11.43625 | -66.85308 | 8017 ft | 180 kts | 209° |
| 2026-04-19 20:16 | 11.42548 | -66.85955 | 8019 ft | 180 kts | 209° |
| 2026-04-19 20:17 | 11.41467 | -66.86604 | 8015 ft | 180 kts | 209° |
| 2026-04-19 20:17 | 11.40387 | -66.87254 | 8014 ft | 180 kts | 209° |
| 2026-04-19 20:17 | 11.39304 | -66.87903 | 8019 ft | 181 kts | 209° |
| 2026-04-19 20:17 | 11.38223 | -66.88552 | 8018 ft | 180 kts | 209° |
| 2026-04-19 20:18 | 11.37145 | -66.89198 | 8013 ft | 179 kts | 209° |
| 2026-04-19 20:18 | 11.36070 | -66.89844 | 8008 ft | 179 kts | 209° |
| 2026-04-19 20:18 | 11.34995 | -66.90490 | 8007 ft | 179 kts | 209° |
| 2026-04-19 20:18 | 11.33924 | -66.91132 | 8006 ft | 179 kts | 209° |
| 2026-04-19 20:19 | 11.32853 | -66.91774 | 8004 ft | 179 kts | 209° |
| 2026-04-19 20:19 | 11.31782 | -66.92418 | 8003 ft | 179 kts | 209° |
| 2026-04-19 20:19 | 11.30712 | -66.93059 | 8005 ft | 178 kts | 209° |
| 2026-04-19 20:19 | 11.29642 | -66.93701 | 8006 ft | 178 kts | 209° |
| 2026-04-19 20:20 | 11.28574 | -66.94341 | 8004 ft | 178 kts | 209° |
| 2026-04-19 20:20 | 11.27516 | -66.94976 | 8004 ft | 179 kts | 209° |
| 2026-04-19 20:20 | 11.26447 | -66.95617 | 8008 ft | 178 kts | 209° |
| 2026-04-19 20:20 | 11.25379 | -66.96256 | 8010 ft | 178 kts | 209° |
| 2026-04-19 20:21 | 11.24310 | -66.96897 | 8007 ft | 178 kts | 209° |
| 2026-04-19 20:21 | 11.23242 | -66.97539 | 8012 ft | 178 kts | 209° |
| 2026-04-19 20:21 | 11.22171 | -66.98180 | 8011 ft | 178 kts | 209° |
| 2026-04-19 20:21 | 11.21101 | -66.98821 | 8011 ft | 178 kts | 209° |
| 2026-04-19 20:22 | 11.20030 | -66.99463 | 8010 ft | 179 kts | 209° |
| 2026-04-19 20:22 | 11.19320 | -66.99888 | 8010 ft | 179 kts | 209° |
| 2026-04-19 20:22 | 11.18250 | -67.00530 | 8015 ft | 178 kts | 209° |
| 2026-04-19 20:22 | 11.17180 | -67.01170 | 8017 ft | 178 kts | 209° |
| 2026-04-19 20:23 | 11.16111 | -67.01811 | 8017 ft | 178 kts | 209° |
| 2026-04-19 20:23 | 11.15040 | -67.02453 | 8013 ft | 179 kts | 209° |
| 2026-04-19 20:23 | 11.13969 | -67.03095 | 8014 ft | 179 kts | 209° |
| 2026-04-19 20:23 | 11.12897 | -67.03736 | 8014 ft | 179 kts | 209° |
| 2026-04-19 20:24 | 11.11825 | -67.04379 | 8014 ft | 179 kts | 210° |
| 2026-04-19 20:24 | 11.10750 | -67.05022 | 8012 ft | 179 kts | 209° |
| 2026-04-19 20:24 | 11.09679 | -67.05664 | 8010 ft | 179 kts | 210° |
| 2026-04-19 20:24 | 11.08607 | -67.06305 | 8010 ft | 179 kts | 209° |
| 2026-04-19 20:25 | 11.07535 | -67.06947 | 8010 ft | 179 kts | 210° |
| 2026-04-19 20:25 | 11.06465 | -67.07589 | 8009 ft | 179 kts | 210° |
| 2026-04-19 20:25 | 11.05395 | -67.08229 | 8011 ft | 178 kts | 209° |
| 2026-04-19 20:25 | 11.04324 | -67.08869 | 8011 ft | 178 kts | 210° |
| 2026-04-19 20:26 | 11.03256 | -67.09508 | 8011 ft | 178 kts | 209° |
| 2026-04-19 20:26 | 11.02187 | -67.10149 | 8009 ft | 178 kts | 209° |
| 2026-04-19 20:26 | 11.01063 | -67.10641 | 8010 ft | 176 kts | 185° |
| 2026-04-19 20:26 | 10.99878 | -67.10418 | 8015 ft | 174 kts | 162° |
| 2026-04-19 20:27 | 10.98686 | -67.10189 | 8019 ft | 175 kts | 173° |
| 2026-04-19 20:27 | 10.97471 | -67.10089 | 8017 ft | 175 kts | 175° |
| 2026-04-19 20:27 | 10.96254 | -67.09999 | 8021 ft | 175 kts | 174° |
| 2026-04-19 20:27 | 10.95053 | -67.09904 | 8024 ft | 175 kts | 174° |
| 2026-04-19 20:28 | 10.93820 | -67.09807 | 8024 ft | 175 kts | 174° |
| 2026-04-19 20:28 | 10.92601 | -67.09711 | 8005 ft | 177 kts | 174° |
| 2026-04-19 20:28 | 10.91383 | -67.09615 | 7760 ft | 176 kts | 174° |
| 2026-04-19 20:28 | 10.90183 | -67.09518 | 7497 ft | 170 kts | 174° |
| 2026-04-19 20:29 | 10.89008 | -67.09422 | 7248 ft | 169 kts | 174° |
| 2026-04-19 20:29 | 10.87837 | -67.09329 | 6991 ft | 170 kts | 174° |
| 2026-04-19 20:29 | 10.86656 | -67.09237 | 6733 ft | 170 kts | 174° |
| 2026-04-19 20:30 | 10.84308 | -67.09052 | 6248 ft | 168 kts | 174° |
| 2026-04-19 20:30 | 10.83142 | -67.08958 | 5992 ft | 168 kts | 174° |
| 2026-04-19 20:30 | 10.81978 | -67.08865 | 5743 ft | 168 kts | 174° |
| 2026-04-19 20:30 | 10.80816 | -67.08774 | 5498 ft | 168 kts | 174° |
| 2026-04-19 20:31 | 10.79650 | -67.08683 | 5258 ft | 167 kts | 174° |
| 2026-04-19 20:31 | 10.78484 | -67.08590 | 5020 ft | 168 kts | 174° |
| 2026-04-19 20:31 | 10.77322 | -67.08499 | 4787 ft | 168 kts | 174° |
| 2026-04-19 20:31 | 10.76157 | -67.08405 | 4550 ft | 167 kts | 174° |
| 2026-04-19 20:32 | 10.74997 | -67.08314 | 4312 ft | 167 kts | 174° |
| 2026-04-19 20:32 | 10.73852 | -67.08225 | 4079 ft | 168 kts | 174° |
| 2026-04-19 20:32 | 10.72697 | -67.08134 | 3848 ft | 166 kts | 174° |
| 2026-04-19 20:32 | 10.71557 | -67.08043 | 3616 ft | 163 kts | 174° |
| 2026-04-19 20:33 | 10.70422 | -67.07954 | 3385 ft | 162 kts | 174° |
| 2026-04-19 20:33 | 10.69316 | -67.07867 | 3156 ft | 156 kts | 173° |
| 2026-04-19 20:33 | 10.68246 | -67.07780 | 2931 ft | 153 kts | 174° |
| 2026-04-19 20:33 | 10.67440 | -67.07717 | 2777 ft | 151 kts | 173° |
| 2026-04-19 20:34 | 10.66575 | -67.07648 | 2606 ft | 152 kts | 173° |
| 2026-04-19 20:34 | 10.65585 | -67.07571 | 2402 ft | 147 kts | 173° |
| 2026-04-19 20:34 | 10.64585 | -67.07493 | 2195 ft | 141 kts | 173° |
| 2026-04-19 20:34 | 10.63652 | -67.07422 | 1996 ft | 128 kts | 173° |
| 2026-04-19 20:35 | 10.62795 | -67.07353 | 1820 ft | 120 kts | 173° |
| 2026-04-19 20:35 | 10.61981 | -67.07286 | 1663 ft | 114 kts | 173° |
| 2026-04-19 20:35 | 10.61207 | -67.07224 | 1516 ft | 110 kts | 173° |
| 2026-04-19 20:35 | 10.60522 | -67.06983 | 1369 ft | 103 kts | 136° |
| 2026-04-19 20:36 | 10.60159 | -67.06386 | 1264 ft | 101 kts | 103° |
| 2026-04-19 20:36 | 10.60166 | -67.05671 | 1089 ft | 104 kts | 85° |
| 2026-04-19 20:36 | 10.60153 | -67.04941 | 947 ft | 104 kts | 95° |
| 2026-04-19 20:36 | 10.60132 | -67.04702 | 892 ft | 104 kts | 94° |
| 2026-04-19 20:37 | 10.60162 | -67.03470 | 713 ft | 105 kts | 87° |
| 2026-04-19 20:37 | 10.60180 | -67.02725 | 581 ft | 106 kts | 89° |
| 2026-04-19 20:37 | 10.60198 | -67.01978 | 433 ft | 104 kts | 88° |
| 2026-04-19 20:37 | 10.60215 | -67.01250 | 289 ft | 102 kts | 88° |
| 2026-04-19 20:38 | 10.60235 | -67.00561 | 220 ft | 90 kts | 88° |
| 2026-04-19 20:38 | 10.60248 | -67.00090 | 215 ft | 38 kts | 89° |
| 2026-04-19 20:38 | 10.60244 | -66.99925 | 216 ft | 16 kts | 141° |
| 2026-04-19 20:38 | 10.60162 | -66.99918 | 217 ft | 14 kts | 179° |
| 2026-04-19 20:39 | 10.60091 | -66.99916 | 217 ft | 7 kts | 175° |
| 2026-04-19 20:39 | 10.60031 | -66.99945 | 218 ft | 15 kts | 270° |
| 2026-04-19 20:39 | 10.60030 | -67.00029 | 219 ft | 8 kts | 269° |
| 2026-04-19 20:39 | 10.60027 | -67.00084 | 220 ft | 12 kts | 268° |
| 2026-04-19 20:40 | 10.60027 | -67.00152 | 221 ft | 5 kts | 266° |
| 2026-04-19 20:40 | 10.60001 | -67.00159 | 221 ft | 5 kts | 178° |
| 2026-04-19 20:40 | 10.59970 | -67.00159 | 221 ft | 1 kts | 179° |
| 2026-04-19 20:40 | 10.59968 | -67.00159 | 221 ft | 0 kts | 179° |